createdAt,value
2019-03-27T00:00:31.700Z,99.84
2019-03-27T00:01:31.619Z,99.58
2019-03-27T00:02:31.627Z,99.99
2019-03-27T00:03:32.622Z,99.99
2019-03-27T00:04:31.586Z,99.99
2019-03-27T00:05:31.591Z,99.99
2019-03-27T00:06:31.584Z,99.99
2019-03-27T00:07:31.558Z,99.99
2019-03-27T00:08:31.552Z,99.99
2019-03-27T00:09:31.539Z,99.99
2019-03-27T00:10:31.539Z,99.99
2019-03-27T00:11:31.515Z,99.99
2019-03-27T00:12:31.523Z,99.99
2019-03-27T00:13:31.523Z,99.99
2019-03-27T00:14:31.484Z,99.99
2019-03-27T00:15:31.488Z,99.99
2019-03-27T00:16:31.465Z,99.99
2019-03-27T00:17:31.457Z,99.99
2019-03-27T00:18:31.441Z,99.99
2019-03-27T00:19:31.474Z,99.80
2019-03-27T00:20:31.435Z,99.49
2019-03-27T00:21:31.413Z,99.65
2019-03-27T00:22:31.396Z,99.24
2019-03-27T00:23:31.388Z,98.93
2019-03-27T00:24:31.382Z,98.61
2019-03-27T00:25:31.421Z,98.61
2019-03-27T00:26:31.352Z,98.20
2019-03-27T00:27:31.383Z,98.30
2019-03-27T00:28:31.333Z,98.20
2019-03-27T00:29:31.319Z,98.30
2019-03-27T00:30:31.341Z,98.41
2019-03-27T00:31:31.313Z,97.95
2019-03-27T00:32:31.289Z,97.33
2019-03-27T00:33:31.309Z,97.33
2019-03-27T00:34:31.270Z,97.22
2019-03-27T00:35:31.255Z,97.47
2019-03-27T00:36:31.263Z,97.16
2019-03-27T00:37:31.243Z,97.16
2019-03-27T00:38:31.223Z,97.43
2019-03-27T00:39:31.213Z,97.27
2019-03-27T00:40:31.216Z,97.22
2019-03-27T00:41:31.295Z,97.12
2019-03-27T00:42:31.181Z,97.22
2019-03-27T00:43:31.172Z,97.22
2019-03-27T00:44:31.161Z,97.33
2019-03-27T00:45:31.146Z,96.81
2019-03-27T00:46:31.158Z,96.50
2019-03-27T00:47:31.128Z,96.66
2019-03-27T00:48:31.134Z,96.50
2019-03-27T00:49:31.105Z,96.60
2019-03-27T00:50:31.098Z,96.60
2019-03-27T00:51:31.100Z,96.50
2019-03-27T00:52:31.079Z,95.98
2019-03-27T00:53:31.067Z,96.60
2019-03-27T00:54:31.066Z,95.98
2019-03-27T00:55:31.060Z,96.50
2019-03-27T00:56:31.056Z,96.29
2019-03-27T00:57:31.029Z,95.36
2019-03-27T00:58:31.009Z,95.56
2019-03-27T00:59:30.997Z,95.67
2019-03-27T01:00:30.990Z,96.50
2019-03-27T01:01:31.052Z,95.46
2019-03-27T01:02:30.966Z,95.46
2019-03-27T01:03:30.954Z,94.94
2019-03-27T01:04:30.948Z,95.09
2019-03-27T01:05:30.933Z,95.19
2019-03-27T01:06:30.933Z,95.19
2019-03-27T01:07:30.936Z,95.19
2019-03-27T01:08:30.904Z,95.19
2019-03-27T01:09:30.892Z,95.54
2019-03-27T01:10:30.890Z,95.65
2019-03-27T01:11:30.904Z,96.58
2019-03-27T01:12:30.858Z,96.58
2019-03-27T01:13:30.856Z,95.54
2019-03-27T01:14:30.908Z,95.75
2019-03-27T01:15:39.591Z,96.27
2019-03-27T01:16:31.847Z,95.44
2019-03-27T01:17:30.805Z,95.54
2019-03-27T01:18:30.800Z,95.86
2019-03-27T01:19:30.786Z,95.59
2019-03-27T01:20:30.787Z,95.17
2019-03-27T01:21:30.763Z,95.17
2019-03-27T01:22:30.767Z,96.31
2019-03-27T01:23:30.740Z,96.31
2019-03-27T01:24:30.727Z,96.83
2019-03-27T01:25:30.719Z,96.42
2019-03-27T01:26:30.726Z,96.83
2019-03-27T01:27:30.735Z,96.94
2019-03-27T01:28:30.685Z,96.73
2019-03-27T01:29:30.678Z,96.42
2019-03-27T01:30:30.664Z,96.88
2019-03-27T01:31:30.657Z,96.83
2019-03-27T01:32:30.662Z,97.45
2019-03-27T01:33:30.663Z,97.56
2019-03-27T01:34:30.665Z,98.65
2019-03-27T01:35:30.619Z,98.02
2019-03-27T01:36:30.607Z,97.81
2019-03-27T01:37:30.611Z,98.13
2019-03-27T01:38:30.580Z,98.33
2019-03-27T01:39:30.571Z,97.92
2019-03-27T01:40:30.564Z,98.13
2019-03-27T01:41:30.576Z,98.02
2019-03-27T01:42:30.557Z,98.75
2019-03-27T01:43:30.529Z,98.65
2019-03-27T01:44:30.519Z,98.33
2019-03-27T01:45:30.509Z,98.48
2019-03-27T01:46:30.504Z,98.44
2019-03-27T01:47:30.553Z,98.44
2019-03-27T01:48:30.474Z,98.23
2019-03-27T01:49:30.469Z,98.48
2019-03-27T01:50:30.453Z,98.48
2019-03-27T01:51:30.443Z,98.27
2019-03-27T01:52:30.445Z,98.80
2019-03-27T01:53:30.441Z,98.80
2019-03-27T01:54:30.413Z,98.48
2019-03-27T01:55:30.401Z,98.85
2019-03-27T01:56:30.392Z,99.21
2019-03-27T01:57:30.394Z,98.85
2019-03-27T01:58:30.371Z,98.80
2019-03-27T01:59:30.381Z,98.85
2019-03-27T02:00:30.355Z,99.01
2019-03-27T02:01:30.337Z,98.69
2019-03-27T02:02:30.354Z,98.80
2019-03-27T02:03:30.321Z,99.42
2019-03-27T02:04:30.310Z,99.11
2019-03-27T02:05:30.294Z,98.90
2019-03-27T02:06:30.320Z,99.11
2019-03-27T02:07:30.328Z,99.94
2019-03-27T02:08:30.274Z,99.99
2019-03-27T02:09:30.324Z,99.99
2019-03-27T02:10:30.248Z,99.99
2019-03-27T02:11:30.229Z,99.99
2019-03-27T02:12:30.218Z,99.99
2019-03-27T02:13:30.256Z,99.99
2019-03-27T02:14:30.197Z,99.99
2019-03-27T02:15:30.182Z,99.99
2019-03-27T02:16:30.173Z,99.99
2019-03-27T02:17:30.170Z,99.99
2019-03-27T02:18:30.166Z,99.99
2019-03-27T02:19:30.140Z,99.99
2019-03-27T02:20:30.160Z,99.99
2019-03-27T02:21:30.126Z,99.99
2019-03-27T02:22:30.116Z,99.99
2019-03-27T02:23:30.119Z,99.99
2019-03-27T02:24:30.089Z,99.99
2019-03-27T02:25:30.086Z,99.99
2019-03-27T02:26:30.100Z,99.99
2019-03-27T02:27:30.058Z,99.99
2019-03-27T02:28:30.066Z,99.99
2019-03-27T02:29:30.040Z,99.99
2019-03-27T02:30:30.029Z,99.99
2019-03-27T02:31:30.023Z,99.99
2019-03-27T02:32:30.053Z,99.99
2019-03-27T02:33:30.007Z,99.99
2019-03-27T02:34:29.988Z,99.99
2019-03-27T02:35:29.976Z,99.99
2019-03-27T02:36:29.969Z,99.99
2019-03-27T02:37:29.953Z,99.99
2019-03-27T02:38:30.004Z,99.99
2019-03-27T02:39:29.933Z,99.99
2019-03-27T02:40:29.922Z,99.99
2019-03-27T02:41:29.906Z,99.99
2019-03-27T02:42:29.895Z,99.99
2019-03-27T02:43:29.886Z,99.99
2019-03-27T02:44:29.929Z,99.99
2019-03-27T02:45:29.869Z,99.99
2019-03-27T02:46:29.894Z,99.99
2019-03-27T02:47:29.847Z,99.99
2019-03-27T02:48:29.846Z,99.99
2019-03-27T02:49:29.840Z,99.99
2019-03-27T02:50:29.832Z,99.99
2019-03-27T02:51:29.840Z,99.99
2019-03-27T02:52:29.789Z,99.99
2019-03-27T02:53:29.780Z,99.99
2019-03-27T02:54:29.791Z,99.99
2019-03-27T02:55:29.767Z,99.99
2019-03-27T02:56:29.754Z,99.99
2019-03-27T02:57:29.776Z,99.99
2019-03-27T02:58:29.738Z,99.99
2019-03-27T02:59:29.744Z,99.99
2019-03-27T03:00:29.702Z,99.99
2019-03-27T03:01:29.695Z,99.99
2019-03-27T03:02:29.686Z,99.99
2019-03-27T03:03:29.672Z,99.99
2019-03-27T03:04:29.675Z,99.99
2019-03-27T03:05:29.690Z,99.99
2019-03-27T03:06:29.641Z,99.99
2019-03-27T03:07:29.632Z,99.99
2019-03-27T03:08:29.629Z,99.99
2019-03-27T03:09:29.626Z,99.99
2019-03-27T03:10:29.596Z,99.99
2019-03-27T03:11:29.605Z,99.99
2019-03-27T03:12:29.580Z,99.99
2019-03-27T03:13:29.568Z,99.99
2019-03-27T03:14:29.573Z,99.99
2019-03-27T03:15:29.543Z,99.99
2019-03-27T03:16:41.838Z,99.99
2019-03-27T03:17:30.551Z,99.99
2019-03-27T03:18:29.511Z,99.99
2019-03-27T03:19:29.517Z,99.99
2019-03-27T03:20:29.499Z,99.99
2019-03-27T03:21:29.489Z,99.99
2019-03-27T03:22:29.477Z,99.99
2019-03-27T03:23:29.478Z,99.99
2019-03-27T03:24:29.523Z,99.99
2019-03-27T03:25:29.439Z,99.99
2019-03-27T03:26:29.434Z,99.99
2019-03-27T03:27:29.417Z,99.99
2019-03-27T03:28:29.405Z,99.99
2019-03-27T03:29:29.394Z,99.99
2019-03-27T03:30:29.408Z,99.99
2019-03-27T03:31:29.378Z,99.99
2019-03-27T03:32:29.390Z,99.99
2019-03-27T03:33:29.354Z,99.99
2019-03-27T03:34:29.358Z,99.99
2019-03-27T03:35:29.345Z,99.99
2019-03-27T03:36:29.319Z,99.99
2019-03-27T03:37:29.310Z,99.99
2019-03-27T03:38:29.458Z,99.99
2019-03-27T03:39:29.316Z,99.99
2019-03-27T03:40:29.324Z,99.99
2019-03-27T03:41:29.273Z,99.99
2019-03-27T03:42:29.253Z,99.99
2019-03-27T03:43:29.248Z,99.99
2019-03-27T03:44:29.240Z,99.99
2019-03-27T03:45:29.233Z,99.99
2019-03-27T03:46:29.225Z,99.99
2019-03-27T03:47:29.199Z,99.99
2019-03-27T03:48:29.190Z,99.99
2019-03-27T03:49:29.181Z,99.99
2019-03-27T03:50:29.207Z,99.99
2019-03-27T03:51:29.162Z,99.99
2019-03-27T03:52:29.191Z,99.99
2019-03-27T03:53:29.140Z,99.99
2019-03-27T03:54:29.123Z,99.99
2019-03-27T03:55:29.132Z,99.99
2019-03-27T03:56:29.107Z,99.99
2019-03-27T03:57:29.098Z,99.99
2019-03-27T03:58:29.094Z,99.99
2019-03-27T03:59:29.078Z,99.99
2019-03-27T04:00:29.072Z,99.99
2019-03-27T04:01:29.046Z,99.99
2019-03-27T04:02:29.045Z,99.99
2019-03-27T04:03:29.114Z,99.99
2019-03-27T04:04:29.016Z,99.99
2019-03-27T04:05:29.053Z,99.99
2019-03-27T04:06:28.997Z,99.99
2019-03-27T04:07:28.986Z,99.99
2019-03-27T04:08:28.973Z,99.99
2019-03-27T04:09:28.961Z,99.99
2019-03-27T04:10:29.015Z,99.99
2019-03-27T04:11:28.962Z,99.99
2019-03-27T04:12:29.000Z,99.99
2019-03-27T04:13:28.920Z,99.85
2019-03-27T04:14:28.913Z,99.95
2019-03-27T04:15:28.913Z,99.49
2019-03-27T04:16:28.889Z,99.43
2019-03-27T04:17:28.874Z,99.43
2019-03-27T04:18:28.885Z,99.43
2019-03-27T04:19:28.867Z,99.08
2019-03-27T04:20:28.858Z,99.02
2019-03-27T04:21:28.832Z,99.43
2019-03-27T04:22:28.831Z,98.56
2019-03-27T04:23:28.824Z,98.15
2019-03-27T04:24:28.833Z,98.46
2019-03-27T04:25:28.811Z,97.94
2019-03-27T04:26:33.256Z,98.15
2019-03-27T04:27:28.847Z,98.19
2019-03-27T04:28:28.762Z,98.19
2019-03-27T04:29:28.752Z,98.15
2019-03-27T04:30:28.764Z,98.46
2019-03-27T04:31:28.756Z,98.46
2019-03-27T04:32:28.720Z,98.25
2019-03-27T04:33:28.720Z,98.35
2019-03-27T04:34:28.694Z,98.25
2019-03-27T04:35:28.701Z,98.25
2019-03-27T04:36:28.708Z,98.15
2019-03-27T04:37:28.669Z,98.25
2019-03-27T04:38:28.653Z,98.21
2019-03-27T04:39:28.647Z,98.15
2019-03-27T04:40:28.655Z,98.10
2019-03-27T04:41:28.645Z,98.21
2019-03-27T04:42:28.611Z,98.10
2019-03-27T04:43:28.603Z,97.49
2019-03-27T04:44:28.591Z,97.89
2019-03-27T04:45:28.599Z,97.69
2019-03-27T04:46:28.575Z,97.79
2019-03-27T04:47:32.404Z,97.69
2019-03-27T04:48:28.607Z,97.59
2019-03-27T04:49:28.542Z,97.69
2019-03-27T04:50:28.582Z,97.49
2019-03-27T04:51:28.513Z,97.89
2019-03-27T04:52:28.508Z,97.89
2019-03-27T04:53:28.528Z,97.69
2019-03-27T04:54:28.521Z,98.10
2019-03-27T04:55:28.472Z,98.00
2019-03-27T04:56:28.481Z,97.89
2019-03-27T04:57:28.455Z,97.59
2019-03-27T04:58:28.450Z,98.00
2019-03-27T04:59:28.460Z,97.75
2019-03-27T05:00:28.422Z,97.79
2019-03-27T05:01:28.424Z,97.79
2019-03-27T05:02:28.402Z,98.00
2019-03-27T05:03:28.390Z,98.10
2019-03-27T05:04:28.388Z,97.28
2019-03-27T05:05:28.378Z,97.17
2019-03-27T05:06:28.403Z,96.76
2019-03-27T05:07:28.347Z,97.23
2019-03-27T05:08:28.344Z,97.13
2019-03-27T05:09:28.334Z,97.02
2019-03-27T05:10:28.318Z,96.82
2019-03-27T05:11:28.321Z,96.82
2019-03-27T05:12:28.332Z,96.72
2019-03-27T05:13:28.279Z,96.82
2019-03-27T05:14:28.266Z,96.72
2019-03-27T05:15:28.259Z,96.92
2019-03-27T05:16:28.272Z,96.67
2019-03-27T05:17:28.236Z,96.72
2019-03-27T05:18:28.230Z,96.47
2019-03-27T05:19:28.230Z,96.51
2019-03-27T05:20:28.862Z,96.67
2019-03-27T05:21:28.210Z,96.47
2019-03-27T05:22:28.188Z,96.88
2019-03-27T05:23:28.174Z,96.67
2019-03-27T05:24:28.166Z,96.36
2019-03-27T05:25:28.158Z,96.77
2019-03-27T05:26:28.198Z,96.26
2019-03-27T05:27:28.130Z,96.56
2019-03-27T05:28:28.128Z,96.77
2019-03-27T05:29:28.108Z,96.88
2019-03-27T05:30:28.097Z,96.56
2019-03-27T05:31:28.110Z,96.98
2019-03-27T05:32:28.079Z,97.04
2019-03-27T05:33:28.099Z,96.94
2019-03-27T05:34:28.056Z,96.83
2019-03-27T05:35:28.047Z,96.62
2019-03-27T05:36:28.058Z,96.21
2019-03-27T05:37:28.023Z,96.21
2019-03-27T05:38:28.013Z,97.14
2019-03-27T05:39:28.036Z,96.62
2019-03-27T05:40:28.047Z,96.73
2019-03-27T05:41:27.982Z,96.21
2019-03-27T05:42:27.985Z,95.76
2019-03-27T05:43:27.959Z,95.96
2019-03-27T05:44:27.949Z,96.06
2019-03-27T05:45:27.936Z,95.86
2019-03-27T05:46:27.943Z,96.06
2019-03-27T05:47:27.935Z,96.06
2019-03-27T05:48:27.903Z,96.06
2019-03-27T05:49:27.899Z,96.06
2019-03-27T05:50:27.887Z,95.40
2019-03-27T05:51:27.876Z,95.61
2019-03-27T05:52:27.896Z,95.45
2019-03-27T05:53:27.849Z,95.45
2019-03-27T05:54:27.845Z,95.71
2019-03-27T05:55:27.839Z,95.81
2019-03-27T05:56:27.821Z,95.71
2019-03-27T05:57:27.825Z,95.92
2019-03-27T05:58:27.820Z,95.50
2019-03-27T05:59:27.791Z,95.92
2019-03-27T06:00:27.778Z,95.50
2019-03-27T06:01:27.768Z,95.50
2019-03-27T06:02:27.777Z,95.77
2019-03-27T06:03:27.759Z,94.99
2019-03-27T06:04:27.781Z,95.09
2019-03-27T06:05:27.721Z,94.43
2019-03-27T06:06:27.713Z,94.53
2019-03-27T06:07:27.719Z,94.53
2019-03-27T06:08:27.694Z,94.74
2019-03-27T06:09:27.675Z,94.95
2019-03-27T06:10:27.712Z,94.84
2019-03-27T06:11:27.658Z,93.91
2019-03-27T06:12:27.658Z,94.53
2019-03-27T06:13:27.637Z,94.74
2019-03-27T06:14:27.625Z,94.43
2019-03-27T06:15:27.614Z,94.32
2019-03-27T06:16:27.605Z,94.84
2019-03-27T06:17:27.611Z,94.18
2019-03-27T06:18:27.581Z,93.66
2019-03-27T06:19:27.566Z,93.77
2019-03-27T06:20:27.563Z,93.98
2019-03-27T06:21:27.548Z,94.70
2019-03-27T06:22:27.552Z,93.77
2019-03-27T06:23:27.523Z,94.28
2019-03-27T06:24:27.521Z,93.66
2019-03-27T06:25:27.515Z,93.15
2019-03-27T06:26:27.496Z,93.21
2019-03-27T06:27:27.508Z,93.66
2019-03-27T06:28:27.472Z,93.35
2019-03-27T06:29:27.458Z,93.31
2019-03-27T06:30:27.453Z,93.52
2019-03-27T06:31:27.456Z,93.21
2019-03-27T06:32:27.428Z,93.11
2019-03-27T06:33:27.422Z,93.31
2019-03-27T06:34:27.401Z,92.55
2019-03-27T06:35:27.403Z,93.16
2019-03-27T06:36:27.393Z,93.27
2019-03-27T06:37:27.372Z,93.06
2019-03-27T06:38:27.405Z,92.55
2019-03-27T06:39:27.382Z,92.44
2019-03-27T06:40:27.347Z,92.76
2019-03-27T06:41:27.328Z,92.40
2019-03-27T06:42:27.324Z,92.71
2019-03-27T06:43:27.323Z,92.14
2019-03-27T06:44:27.300Z,92.10
2019-03-27T06:45:27.300Z,91.89
2019-03-27T06:46:27.288Z,92.30
2019-03-27T06:47:27.288Z,91.38
2019-03-27T06:48:27.268Z,91.89
2019-03-27T06:49:27.250Z,91.68
2019-03-27T06:50:27.238Z,91.78
2019-03-27T06:51:39.383Z,91.74
2019-03-27T06:52:28.294Z,91.64
2019-03-27T06:53:27.215Z,91.44
2019-03-27T06:54:27.228Z,91.02
2019-03-27T06:55:27.205Z,90.30
2019-03-27T06:56:27.163Z,90.81
2019-03-27T06:57:27.151Z,90.92
2019-03-27T06:58:27.190Z,90.41
2019-03-27T06:59:27.134Z,90.47
2019-03-27T07:00:27.138Z,90.67
2019-03-27T07:01:27.117Z,90.88
2019-03-27T07:02:28.720Z,90.88
2019-03-27T07:03:27.134Z,90.67
2019-03-27T07:04:27.085Z,90.06
2019-03-27T07:05:27.067Z,90.16
2019-03-27T07:06:27.059Z,89.40
2019-03-27T07:07:27.052Z,90.42
2019-03-27T07:08:27.100Z,90.12
2019-03-27T07:09:27.031Z,89.40
2019-03-27T07:10:27.018Z,89.50
2019-03-27T07:11:27.011Z,89.50
2019-03-27T07:12:26.994Z,88.57
2019-03-27T07:13:27.006Z,89.60
2019-03-27T07:14:27.007Z,89.66
2019-03-27T07:15:26.961Z,87.92
2019-03-27T07:16:26.956Z,89.15
2019-03-27T07:17:26.940Z,88.29
2019-03-27T07:18:39.429Z,88.18
2019-03-27T07:19:27.917Z,87.67
2019-03-27T07:20:26.960Z,87.63
2019-03-27T07:21:26.895Z,87.12
2019-03-27T07:22:26.886Z,87.49
2019-03-27T07:23:26.933Z,86.71
2019-03-27T07:24:26.881Z,86.25
2019-03-27T07:25:26.849Z,86.87
2019-03-27T07:26:26.847Z,87.18
2019-03-27T07:27:26.869Z,86.22
2019-03-27T07:28:34.973Z,85.71
2019-03-27T07:29:26.808Z,86.01
2019-03-27T07:30:26.799Z,84.84
2019-03-27T07:31:26.802Z,85.15
2019-03-27T07:32:26.773Z,84.50
2019-03-27T07:33:26.763Z,84.19
2019-03-27T07:34:26.793Z,84.39
2019-03-27T07:35:26.749Z,83.88
2019-03-27T07:36:26.736Z,82.96
2019-03-27T07:37:26.722Z,84.80
2019-03-27T07:38:26.743Z,82.92
2019-03-27T07:39:26.724Z,82.48
2019-03-27T07:40:26.695Z,82.68
2019-03-27T07:41:26.685Z,82.48
2019-03-27T07:42:28.901Z,81.41
2019-03-27T07:43:26.681Z,82.43
2019-03-27T07:44:26.666Z,80.29
2019-03-27T07:45:26.639Z,80.60
2019-03-27T07:46:27.103Z,81.68
2019-03-27T07:47:26.610Z,80.35
2019-03-27T07:48:26.599Z,80.66
2019-03-27T07:49:26.828Z,80.87
2019-03-27T07:50:26.967Z,80.56
2019-03-27T07:51:26.593Z,80.46
2019-03-27T07:52:26.556Z,79.74
2019-03-27T07:53:26.544Z,78.86
2019-03-27T07:54:26.545Z,78.75
2019-03-27T07:55:26.535Z,79.37
2019-03-27T07:56:26.511Z,80.29
2019-03-27T07:57:26.750Z,79.57
2019-03-27T07:58:26.490Z,80.49
2019-03-27T07:59:26.502Z,79.20
2019-03-27T08:00:26.471Z,78.89
2019-03-27T08:01:26.467Z,79.16
2019-03-27T08:02:26.446Z,78.34
2019-03-27T08:03:26.437Z,80.08
2019-03-27T08:04:26.448Z,79.98
2019-03-27T08:05:26.412Z,80.19
2019-03-27T08:06:26.406Z,79.88
2019-03-27T08:07:27.287Z,80.08
2019-03-27T08:08:26.385Z,79.68
2019-03-27T08:09:26.404Z,80.69
2019-03-27T08:10:26.416Z,79.98
2019-03-27T08:11:26.477Z,79.88
2019-03-27T08:12:26.342Z,79.47
2019-03-27T08:13:26.339Z,80.69
2019-03-27T08:14:26.341Z,80.29
2019-03-27T08:15:26.308Z,79.37
2019-03-27T08:16:26.316Z,79.16
2019-03-27T08:17:34.345Z,80.19
2019-03-27T08:18:26.277Z,80.08
2019-03-27T08:19:26.285Z,80.05
2019-03-27T08:20:26.265Z,80.97
2019-03-27T08:21:26.245Z,80.15
2019-03-27T08:22:26.258Z,78.61
2019-03-27T08:23:26.232Z,79.13
2019-03-27T08:24:26.226Z,79.23
2019-03-27T08:25:26.204Z,79.02
2019-03-27T08:26:26.230Z,79.33
2019-03-27T08:27:26.179Z,78.82
2019-03-27T08:28:26.169Z,79.06
2019-03-27T08:29:26.167Z,78.45
2019-03-27T08:30:26.148Z,79.57
2019-03-27T08:31:26.161Z,80.12
2019-03-27T08:32:26.140Z,79.71
2019-03-27T08:33:26.130Z,80.57
2019-03-27T08:34:26.127Z,80.63
2019-03-27T08:35:26.089Z,80.33
2019-03-27T08:36:26.080Z,80.36
2019-03-27T08:37:26.066Z,80.77
2019-03-27T08:38:26.059Z,80.67
2019-03-27T08:39:26.066Z,80.57
2019-03-27T08:40:26.174Z,80.05
2019-03-27T08:41:26.029Z,80.43
2019-03-27T08:42:26.046Z,80.22
2019-03-27T08:43:26.247Z,81.04
2019-03-27T08:44:25.994Z,80.39
2019-03-27T08:45:25.992Z,79.98
2019-03-27T08:46:26.183Z,79.50
2019-03-27T08:47:35.709Z,79.06
2019-03-27T08:48:25.951Z,80.19
2019-03-27T08:49:25.943Z,80.49
2019-03-27T08:50:26.003Z,80.08
2019-03-27T08:51:25.929Z,79.91
2019-03-27T08:52:25.924Z,80.53
2019-03-27T08:53:25.889Z,80.43
2019-03-27T08:54:25.907Z,80.57
2019-03-27T08:55:25.883Z,81.38
2019-03-27T08:56:25.857Z,80.26
2019-03-27T08:57:25.889Z,80.26
2019-03-27T08:58:25.840Z,80.77
2019-03-27T08:59:25.826Z,80.88
2019-03-27T09:00:25.860Z,80.88
2019-03-27T09:01:25.805Z,80.94
2019-03-27T09:02:25.793Z,80.36
2019-03-27T09:03:25.779Z,80.53
2019-03-27T09:04:25.776Z,79.82
2019-03-27T09:05:25.785Z,80.43
2019-03-27T09:06:33.525Z,80.94
2019-03-27T09:07:26.754Z,80.60
2019-03-27T09:08:25.731Z,80.49
2019-03-27T09:09:25.720Z,80.08
2019-03-27T09:10:25.723Z,80.80
2019-03-27T09:11:25.697Z,79.84
2019-03-27T09:12:25.689Z,78.82
2019-03-27T09:13:25.674Z,78.17
2019-03-27T09:14:25.692Z,78.68
2019-03-27T09:15:25.679Z,78.23
2019-03-27T09:16:25.638Z,77.52
2019-03-27T09:17:25.626Z,78.20
2019-03-27T09:18:25.637Z,77.65
2019-03-27T09:19:35.584Z,78.12
2019-03-27T09:20:26.640Z,77.37
2019-03-27T09:21:25.742Z,75.30
2019-03-27T09:22:26.332Z,73.02
2019-03-27T09:23:25.631Z,74.21
2019-03-27T09:24:25.686Z,72.55
2019-03-27T09:25:25.646Z,71.36
2019-03-27T09:26:25.547Z,73.30
2019-03-27T09:27:25.524Z,70.96
2019-03-27T09:28:25.507Z,68.85
2019-03-27T09:29:25.699Z,70.28
2019-03-27T09:30:25.566Z,70.89
2019-03-27T09:31:25.545Z,71.02
2019-03-27T09:32:25.672Z,71.02
2019-03-27T09:33:25.472Z,70.48
2019-03-27T09:34:25.623Z,70.62
2019-03-27T09:35:25.623Z,71.23
2019-03-27T09:36:25.648Z,70.65
2019-03-27T09:37:25.622Z,71.12
2019-03-27T09:38:25.622Z,70.55
2019-03-27T09:39:25.392Z,71.50
2019-03-27T09:40:25.378Z,71.47
2019-03-27T09:41:25.458Z,71.80
2019-03-27T09:42:25.531Z,70.89
2019-03-27T09:43:25.344Z,70.89
2019-03-27T09:44:25.343Z,71.19
2019-03-27T09:45:25.321Z,72.41
2019-03-27T09:46:25.330Z,72.65
2019-03-27T09:47:25.317Z,71.67
2019-03-27T09:48:25.287Z,72.55
2019-03-27T09:49:25.399Z,72.38
2019-03-27T09:50:25.266Z,72.62
2019-03-27T09:51:25.277Z,73.13
2019-03-27T09:52:25.279Z,73.13
2019-03-27T09:53:25.238Z,72.96
2019-03-27T09:54:25.222Z,73.27
2019-03-27T09:55:25.217Z,74.90
2019-03-27T09:56:25.220Z,75.41
2019-03-27T09:57:35.993Z,75.00
2019-03-27T09:58:25.179Z,75.31
2019-03-27T09:59:25.185Z,75.92
2019-03-27T10:00:25.159Z,75.61
2019-03-27T10:01:25.169Z,75.20
2019-03-27T10:02:25.147Z,74.29
2019-03-27T10:03:25.152Z,74.08
2019-03-27T10:04:25.126Z,74.18
2019-03-27T10:05:25.104Z,75.00
2019-03-27T10:06:25.116Z,73.98
2019-03-27T10:07:25.113Z,74.69
2019-03-27T10:08:25.107Z,75.61
2019-03-27T10:09:25.065Z,75.61
2019-03-27T10:10:25.069Z,74.18
2019-03-27T10:11:25.051Z,75.20
2019-03-27T10:12:25.033Z,74.69
2019-03-27T10:13:25.041Z,74.90
2019-03-27T10:14:25.013Z,74.63
2019-03-27T10:15:25.006Z,76.32
2019-03-27T10:16:25.047Z,76.93
2019-03-27T10:17:24.975Z,75.82
2019-03-27T10:18:24.963Z,76.02
2019-03-27T10:19:25.003Z,76.43
2019-03-27T10:20:24.969Z,76.84
2019-03-27T10:21:25.008Z,76.63
2019-03-27T10:22:24.982Z,76.29
2019-03-27T10:23:24.930Z,75.10
2019-03-27T10:24:24.942Z,75.68
2019-03-27T10:25:24.913Z,75.88
2019-03-27T10:26:24.909Z,75.03
2019-03-27T10:27:24.908Z,73.30
2019-03-27T10:28:24.860Z,74.83
2019-03-27T10:29:24.845Z,74.42
2019-03-27T10:30:24.856Z,72.58
2019-03-27T10:31:24.865Z,74.01
2019-03-27T10:32:24.811Z,73.91
2019-03-27T10:33:24.833Z,73.06
2019-03-27T10:34:24.787Z,72.65
2019-03-27T10:35:24.776Z,73.57
2019-03-27T10:36:24.797Z,72.41
2019-03-27T10:37:24.768Z,73.74
2019-03-27T10:38:24.750Z,74.35
2019-03-27T10:39:24.737Z,72.89
2019-03-27T10:40:24.727Z,71.09
2019-03-27T10:41:24.717Z,71.77
2019-03-27T10:42:24.732Z,72.78
2019-03-27T10:43:24.705Z,72.48
2019-03-27T10:44:24.681Z,71.56
2019-03-27T10:45:24.666Z,72.48
2019-03-27T10:46:24.669Z,72.55
2019-03-27T10:47:24.660Z,70.82
2019-03-27T10:48:24.635Z,71.06
2019-03-27T10:49:24.636Z,72.96
2019-03-27T10:50:24.620Z,71.36
2019-03-27T10:51:24.609Z,70.34
2019-03-27T10:52:24.664Z,71.56
2019-03-27T10:53:24.585Z,71.12
2019-03-27T10:54:24.622Z,71.53
2019-03-27T10:55:24.580Z,70.62
2019-03-27T10:56:24.548Z,70.72
2019-03-27T10:57:24.576Z,70.89
2019-03-27T10:58:24.612Z,70.89
2019-03-27T10:59:24.512Z,70.55
2019-03-27T11:00:24.519Z,70.68
2019-03-27T11:01:24.506Z,70.28
2019-03-27T11:02:24.534Z,70.28
2019-03-27T11:03:24.488Z,70.28
2019-03-27T11:04:24.456Z,70.48
2019-03-27T11:05:24.448Z,70.79
2019-03-27T11:06:24.442Z,71.02
2019-03-27T11:07:24.468Z,71.64
2019-03-27T11:08:24.492Z,71.53
2019-03-27T11:09:24.406Z,71.12
2019-03-27T11:10:24.396Z,71.56
2019-03-27T11:11:24.402Z,72.58
2019-03-27T11:12:24.367Z,72.38
2019-03-27T11:13:24.386Z,70.86
2019-03-27T11:14:36.816Z,72.48
2019-03-27T11:15:25.348Z,71.47
2019-03-27T11:16:24.328Z,71.77
2019-03-27T11:17:24.329Z,73.10
2019-03-27T11:18:24.414Z,73.30
2019-03-27T11:19:24.291Z,72.38
2019-03-27T11:20:30.746Z,72.72
2019-03-27T11:21:25.301Z,73.43
2019-03-27T11:22:24.281Z,72.38
2019-03-27T11:23:24.333Z,73.10
2019-03-27T11:24:24.238Z,72.58
2019-03-27T11:25:24.227Z,73.30
2019-03-27T11:26:24.232Z,72.62
2019-03-27T11:27:24.233Z,71.56
2019-03-27T11:28:24.219Z,71.33
2019-03-27T11:29:24.189Z,70.51
2019-03-27T11:30:24.180Z,70.99
2019-03-27T11:31:24.162Z,70.58
2019-03-27T11:32:24.156Z,70.79
2019-03-27T11:33:24.170Z,70.25
2019-03-27T11:34:24.142Z,70.55
2019-03-27T11:35:24.118Z,68.62
2019-03-27T11:36:24.119Z,69.13
2019-03-27T11:37:24.127Z,70.82
2019-03-27T11:38:24.083Z,68.99
2019-03-27T11:39:24.825Z,68.79
2019-03-27T11:40:24.087Z,69.47
2019-03-27T11:41:24.065Z,69.67
2019-03-27T11:42:24.049Z,67.54
2019-03-27T11:43:24.053Z,68.99
2019-03-27T11:44:24.065Z,68.35
2019-03-27T11:45:24.056Z,68.08
2019-03-27T11:46:24.009Z,69.50
2019-03-27T11:47:23.999Z,69.13
2019-03-27T11:48:24.053Z,70.25
2019-03-27T11:49:23.967Z,69.87
2019-03-27T11:50:23.966Z,69.87
2019-03-27T11:51:23.941Z,70.38
2019-03-27T11:52:23.935Z,70.38
2019-03-27T11:53:23.973Z,70.38
2019-03-27T11:54:23.944Z,71.16
2019-03-27T11:55:23.911Z,68.82
2019-03-27T11:56:23.886Z,70.65
2019-03-27T11:57:23.896Z,70.79
2019-03-27T11:58:23.890Z,70.45
2019-03-27T11:59:23.867Z,70.07
2019-03-27T12:00:23.858Z,70.96
2019-03-27T12:01:23.840Z,70.58
2019-03-27T12:02:23.831Z,70.25
2019-03-27T12:03:23.945Z,70.55
2019-03-27T12:04:23.801Z,70.55
2019-03-27T12:05:23.800Z,71.67
2019-03-27T12:06:23.780Z,70.86
2019-03-27T12:07:23.766Z,70.38
2019-03-27T12:08:23.834Z,70.31
2019-03-27T12:09:23.746Z,70.51
2019-03-27T12:10:23.744Z,71.97
2019-03-27T12:11:23.729Z,72.34
2019-03-27T12:12:23.716Z,71.77
2019-03-27T12:13:23.738Z,72.82
2019-03-27T12:14:23.704Z,72.38
2019-03-27T12:15:23.692Z,72.08
2019-03-27T12:16:23.726Z,71.36
2019-03-27T12:17:23.673Z,72.69
2019-03-27T12:18:23.681Z,72.45
2019-03-27T12:19:23.637Z,71.12
2019-03-27T12:20:23.638Z,71.33
2019-03-27T12:21:23.625Z,71.53
2019-03-27T12:22:23.610Z,71.06
2019-03-27T12:23:23.627Z,71.33
2019-03-27T12:24:23.580Z,72.14
2019-03-27T12:25:23.575Z,71.26
2019-03-27T12:26:23.561Z,72.34
2019-03-27T12:27:23.568Z,72.55
2019-03-27T12:28:23.598Z,71.50
2019-03-27T12:29:23.555Z,70.51
2019-03-27T12:30:23.519Z,70.62
2019-03-27T12:31:23.535Z,70.10
2019-03-27T12:32:25.034Z,71.06
2019-03-27T12:33:23.512Z,71.06
2019-03-27T12:34:23.477Z,72.38
2019-03-27T12:35:23.460Z,70.99
2019-03-27T12:36:23.452Z,71.30
2019-03-27T12:37:23.483Z,71.60
2019-03-27T12:38:23.456Z,71.60
2019-03-27T12:39:23.419Z,71.50
2019-03-27T12:40:23.493Z,71.60
2019-03-27T12:41:23.428Z,72.58
2019-03-27T12:42:23.383Z,72.38
2019-03-27T12:43:23.424Z,71.30
2019-03-27T12:44:23.382Z,72.41
2019-03-27T12:45:23.356Z,72.41
2019-03-27T12:46:23.423Z,72.41
2019-03-27T12:47:23.352Z,71.09
2019-03-27T12:48:23.330Z,71.23
2019-03-27T12:49:23.346Z,71.70
2019-03-27T12:50:23.311Z,72.55
2019-03-27T12:51:23.298Z,72.55
2019-03-27T12:52:23.279Z,72.75